Time;durP1;ratioP1;P1;durP2;ratioP2;P2;SDS_P1;SDS_P2;PMS_P1;PMS_P2;Temp;Humidity;BMP_temperature;BMP_pressure;BME280_temperature;BME280_humidity;BME280_pressure;Samples;Min_cycle;Max_cycle;Signal;HPM_P1;HPM_P2
2022/05/09 00:00:15;;;;;;;9.10;3.10;;;;;;;;;;4956989;28;20031;-60
2022/05/09 00:02:42;;;;;;;3.00;2.80;;;;;;;;;;4954422;28;20031;-61
2022/05/09 00:05:10;;;;;;;4.13;2.60;;;;;;;;;;4953829;28;20027;-60
2022/05/09 00:07:36;;;;;;;6.10;3.72;;;;;;;;;;4955144;28;20023;-60
2022/05/09 00:10:02;;;;;;;3.80;2.80;;;;;;;;;;4961269;28;20043;-60
2022/05/09 00:12:30;;;;;;;5.13;2.38;;;;;;;;;;4956450;28;20019;-60
2022/05/09 00:14:56;;;;;;;4.95;2.85;;;;;;;;;;4954126;28;20035;-60
2022/05/09 00:17:22;;;;;;;2.40;2.20;;;;;;;;;;4961518;28;20093;-60
2022/05/09 00:19:47;;;;;;;3.10;2.15;;;;;;;;;;4959346;28;20105;-60
2022/05/09 00:22:13;;;;;;;2.67;2.10;;;;;;;;;;4954204;28;20037;-60
2022/05/09 00:24:38;;;;;;;8.70;2.28;;;;;;;;;;4954951;28;20039;-60
2022/05/09 00:27:04;;;;;;;2.28;2.10;;;;;;;;;;4953505;28;20035;-60
2022/05/09 00:29:30;;;;;;;4.68;2.20;;;;;;;;;;4959547;28;20039;-60
2022/05/09 00:31:56;;;;;;;6.35;2.92;;;;;;;;;;4958710;28;20035;-60
2022/05/09 00:34:23;;;;;;;2.40;2.20;;;;;;;;;;4954078;28;20070;-60
2022/05/09 00:36:50;;;;;;;3.13;2.08;;;;;;;;;;4954568;28;20034;-60
2022/05/09 00:39:16;;;;;;;2.20;2.10;;;;;;;;;;4954712;28;20023;-60
2022/05/09 00:41:43;;;;;;;2.67;2.47;;;;;;;;;;4954019;28;20034;-61
2022/05/09 00:44:11;;;;;;;4.95;2.88;;;;;;;;;;4956112;28;20058;-60
2022/05/09 00:46:39;;;;;;;5.55;2.63;;;;;;;;;;4964743;28;20093;-60
2022/05/09 00:49:26;;;;;;;2.80;2.60;;;;;;;;;;4954100;28;20438;-60
2022/05/09 00:52:04;;;;;;;4.03;2.22;;;;;;;;;;4955714;28;20388;-60
2022/05/09 00:54:39;;;;;;;3.28;3.00;;;;;;;;;;4957063;28;20053;-60
2022/05/09 00:57:11;;;;;;;3.70;2.88;;;;;;;;;;4959416;28;20031;-60
2022/05/09 00:59:38;;;;;;;;;;;;;;;;;;4954275;28;20111;-60
2022/05/09 01:02:04;;;;;;;2.65;2.45;;;;;;;;;;4958215;28;20137;-60
2022/05/09 01:04:39;;;;;;;3.10;2.90;;;;;;;;;;4954044;28;20035;-60
2022/05/09 01:07:05;;;;;;;5.05;2.72;;;;;;;;;;4956714;28;20027;-60
2022/05/09 01:09:30;;;;;;;3.65;3.35;;;;;;;;;;4955995;28;20027;-60
2022/05/09 01:11:56;;;;;;;3.10;2.80;;;;;;;;;;4952807;28;20051;-60
2022/05/09 01:14:28;;;;;;;3.20;2.40;;;;;;;;;;4953333;28;20038;-60
2022/05/09 01:16:54;;;;;;;2.92;2.72;;;;;;;;;;4960466;28;20573;-61
2022/05/09 01:19:29;;;;;;;2.47;2.28;;;;;;;;;;4951994;28;20102;-60
2022/05/09 01:21:57;;;;;;;3.35;2.50;;;;;;;;;;4960983;28;20039;-59
2022/05/09 01:24:25;;;;;;;2.40;2.20;;;;;;;;;;4956682;28;20039;-59
2022/05/09 01:26:51;;;;;;;2.63;2.42;;;;;;;;;;4952396;28;20030;-60
2022/05/09 01:29:30;;;;;;;2.50;2.28;;;;;;;;;;4960404;28;20530;-60
2022/05/09 01:31:57;;;;;;;3.92;2.40;;;;;;;;;;4962877;28;20039;-60
2022/05/09 01:34:23;;;;;;;3.85;2.20;;;;;;;;;;4952328;28;20031;-60
2022/05/09 01:36:54;;;;;;;4.82;2.47;;;;;;;;;;4960398;28;20022;-61
2022/05/09 01:39:20;;;;;;;2.28;1.88;;;;;;;;;;4952360;28;20074;-60
2022/05/09 01:41:48;;;;;;;2.55;2.10;;;;;;;;;;4952810;28;20035;-60
2022/05/09 01:44:15;;;;;;;2.28;2.08;;;;;;;;;;4953396;28;20031;-60
2022/05/09 01:49:30;;;;;;;2.20;2.10;;;;;;;;;;4952898;28;20038;-60
2022/05/09 01:51:58;;;;;;;2.08;1.98;;;;;;;;;;4956181;28;20033;-60
2022/05/09 01:54:23;;;;;;;2.00;1.80;;;;;;;;;;4956091;28;20039;-59
2022/05/09 01:56:49;;;;;;;5.72;2.40;;;;;;;;;;4954615;28;20036;-60
2022/05/09 01:59:15;;;;;;;2.47;2.28;;;;;;;;;;4956915;28;20468;-61
2022/05/09 02:01:51;;;;;;;3.67;2.20;;;;;;;;;;4958724;28;20035;-60
2022/05/09 02:04:16;;;;;;;2.08;1.98;;;;;;;;;;4952640;28;20563;-60
2022/05/09 02:06:42;;;;;;;1.95;1.80;;;;;;;;;;4960541;28;20137;-60
2022/05/09 02:09:09;;;;;;;9.20;2.47;;;;;;;;;;4957202;28;20042;-59
2022/05/09 02:11:35;;;;;;;3.42;2.10;;;;;;;;;;4961154;28;20074;-60
2022/05/09 02:14:02;;;;;;;2.20;2.10;;;;;;;;;;4952558;28;20023;-59
2022/05/09 02:16:27;;;;;;;3.58;1.90;;;;;;;;;;4955248;28;20126;-60
2022/05/09 02:18:53;;;;;;;2.00;1.90;;;;;;;;;;4957718;28;20118;-60
2022/05/09 02:21:19;;;;;;;3.15;2.17;;;;;;;;;;4953302;28;20125;-60
2022/05/09 02:23:45;;;;;;;1.92;1.80;;;;;;;;;;4952809;28;20027;-59
2022/05/09 02:26:11;;;;;;;2.97;1.95;;;;;;;;;;4953774;28;20023;-59
2022/05/09 02:28:37;;;;;;;3.03;1.98;;;;;;;;;;4953042;28;20032;-60
2022/05/09 02:31:03;;;;;;;3.20;1.92;;;;;;;;;;4960701;28;20087;-56
2022/05/09 02:33:29;;;;;;;1.88;1.77;;;;;;;;;;4956284;28;20086;-60
2022/05/09 02:35:55;;;;;;;3.90;1.85;;;;;;;;;;4956919;28;20058;-59
2022/05/09 02:38:24;;;;;;;3.13;1.60;;;;;;;;;;4961670;28;20106;-60
2022/05/09 02:40:51;;;;;;;3.72;1.80;;;;;;;;;;4959823;28;20125;-60
2022/05/09 02:43:17;;;;;;;3.60;1.80;;;;;;;;;;4963604;28;20039;-59
2022/05/09 02:45:43;;;;;;;1.80;1.70;;;;;;;;;;4955593;28;20059;-57
2022/05/09 02:48:10;;;;;;;2.00;1.90;;;;;;;;;;4955679;28;20605;-60
2022/05/09 02:50:36;;;;;;;2.22;2.08;;;;;;;;;;4962278;28;20660;-60
2022/05/09 02:53:02;;;;;;;3.40;1.90;;;;;;;;;;4963938;28;20488;-60
2022/05/09 02:55:31;;;;;;;4.85;1.75;;;;;;;;;;4959166;28;20047;-60
2022/05/09 02:57:58;;;;;;;1.98;1.70;;;;;;;;;;4959472;28;20050;-60
2022/05/09 03:00:26;;;;;;;1.73;1.63;;;;;;;;;;4963572;28;20039;-59
2022/05/09 03:05:38;;;;;;;1.63;1.50;;;;;;;;;;4954664;28;20035;-59
2022/05/09 03:08:05;;;;;;;1.70;1.60;;;;;;;;;;4958127;28;20130;-59
2022/05/09 03:10:31;;;;;;;1.90;1.80;;;;;;;;;;4960368;28;20392;-59
2022/05/09 03:12:59;;;;;;;1.70;1.60;;;;;;;;;;4955252;28;20066;-60
2022/05/09 03:15:26;;;;;;;1.88;1.70;;;;;;;;;;4955093;28;20118;-59
2022/05/09 03:17:52;;;;;;;2.40;1.80;;;;;;;;;;4958707;28;20063;-60
2022/05/09 03:20:17;;;;;;;3.45;1.60;;;;;;;;;;4970991;28;20046;-60
2022/05/09 03:22:43;;;;;;;1.98;1.80;;;;;;;;;;4973499;28;20037;-59
2022/05/09 03:25:09;;;;;;;1.75;1.65;;;;;;;;;;4965815;28;20540;-60
2022/05/09 03:27:35;;;;;;;2.33;1.80;;;;;;;;;;4968177;28;20042;-59
2022/05/09 03:30:01;;;;;;;1.95;1.85;;;;;;;;;;4960299;28;20144;-59
2022/05/09 03:32:28;;;;;;;4.95;1.80;;;;;;;;;;4966674;28;20038;-60
2022/05/09 03:34:54;;;;;;;2.22;2.03;;;;;;;;;;4962447;28;20051;-59
2022/05/09 03:37:19;;;;;;;1.77;1.67;;;;;;;;;;4963290;28;20034;-60
2022/05/09 03:39:45;;;;;;;2.10;1.60;;;;;;;;;;4962849;28;20471;-59
2022/05/09 03:42:11;;;;;;;5.35;1.75;;;;;;;;;;4963371;28;20038;-60
2022/05/09 03:44:36;;;;;;;3.38;1.73;;;;;;;;;;4967991;28;20035;-60
2022/05/09 03:47:02;;;;;;;1.65;1.55;;;;;;;;;;4965100;28;20035;-60
2022/05/09 03:49:28;;;;;;;1.52;1.42;;;;;;;;;;4969085;28;20040;-60
2022/05/09 03:51:54;;;;;;;2.03;1.85;;;;;;;;;;4964210;28;20038;-60
2022/05/09 03:54:19;;;;;;;1.98;1.88;;;;;;;;;;4956487;28;20022;-59
2022/05/09 03:56:45;;;;;;;1.85;1.48;;;;;;;;;;4961356;28;20031;-60
2022/05/09 03:59:11;;;;;;;1.60;1.50;;;;;;;;;;4961341;28;20031;-60
2022/05/09 04:01:37;;;;;;;6.22;1.70;;;;;;;;;;4961038;28;20035;-60
2022/05/09 04:04:03;;;;;;;1.70;1.60;;;;;;;;;;4959522;28;20038;-59
2022/05/09 04:06:29;;;;;;;1.85;1.70;;;;;;;;;;4960240;28;20058;-60
2022/05/09 04:08:55;;;;;;;1.77;1.67;;;;;;;;;;4967228;28;20088;-60
2022/05/09 04:11:21;;;;;;;1.80;1.70;;;;;;;;;;4965402;28;20023;-59
2022/05/09 04:13:46;;;;;;;1.92;1.65;;;;;;;;;;4964565;28;20062;-59
2022/05/09 04:18:59;;;;;;;1.73;1.63;;;;;;;;;;4962068;28;20035;-60
2022/05/09 04:21:26;;;;;;;3.00;2.05;;;;;;;;;;4958995;28;20490;-58
2022/05/09 04:23:58;;;;;;;2.28;2.00;;;;;;;;;;4959640;28;20031;-60
2022/05/09 04:26:26;;;;;;;2.63;2.42;;;;;;;;;;4971772;28;20307;-59
2022/05/09 04:28:51;;;;;;;2.30;2.10;;;;;;;;;;4958234;28;20114;-59
2022/05/09 04:31:19;;;;;;;1.70;1.60;;;;;;;;;;4953789;28;20062;-60
2022/05/09 04:33:46;;;;;;;2.13;2.00;;;;;;;;;;4964727;28;20035;-60
2022/05/09 04:36:12;;;;;;;3.28;1.80;;;;;;;;;;4954830;28;20034;-60
2022/05/09 04:38:40;;;;;;;2.00;1.90;;;;;;;;;;4956815;28;20031;-59
2022/05/09 04:41:06;;;;;;;1.90;1.80;;;;;;;;;;4961952;28;22368;-60
2022/05/09 04:43:33;;;;;;;2.13;1.90;;;;;;;;;;4965049;28;20022;-60
2022/05/09 04:46:00;;;;;;;1.80;1.70;;;;;;;;;;4963986;28;20053;-59
2022/05/09 04:48:27;;;;;;;2.20;1.55;;;;;;;;;;4957795;28;20035;-60
2022/05/09 04:50:54;;;;;;;2.90;1.98;;;;;;;;;;4960819;28;20113;-59
2022/05/09 04:53:20;;;;;;;3.55;1.90;;;;;;;;;;4962797;28;20035;-59
2022/05/09 04:55:46;;;;;;;2.75;1.90;;;;;;;;;;4970119;28;20118;-59
2022/05/09 04:58:18;;;;;;;3.30;2.05;;;;;;;;;;4961455;28;20045;-60
2022/05/09 05:00:44;;;;;;;3.23;2.10;;;;;;;;;;4956997;28;20026;-60
2022/05/09 05:03:10;;;;;;;2.20;1.80;;;;;;;;;;4963083;28;20311;-60
2022/05/09 05:05:37;;;;;;;1.83;1.70;;;;;;;;;;4957809;28;20510;-59
2022/05/09 05:08:04;;;;;;;1.80;1.70;;;;;;;;;;4969719;28;20039;-59
2022/05/09 05:10:30;;;;;;;2.85;1.70;;;;;;;;;;4962065;28;20038;-60
2022/05/09 05:12:58;;;;;;;1.80;1.67;;;;;;;;;;4963165;28;20065;-60
2022/05/09 05:15:25;;;;;;;1.60;1.50;;;;;;;;;;4960863;28;20059;-59
2022/05/09 05:17:50;;;;;;;1.88;1.63;;;;;;;;;;4957273;28;20081;-59
2022/05/09 05:20:17;;;;;;;1.83;1.73;;;;;;;;;;4966173;28;20114;-59
2022/05/09 05:22:45;;;;;;;2.97;1.67;;;;;;;;;;4962749;28;20053;-59
2022/05/09 05:25:12;;;;;;;2.70;2.17;;;;;;;;;;4963347;28;20111;-59
2022/05/09 05:27:39;;;;;;;2.47;1.60;;;;;;;;;;4960528;28;20072;-60
2022/05/09 05:30:06;;;;;;;5.18;1.70;;;;;;;;;;4958523;28;20439;-59
2022/05/09 05:32:36;;;;;;;2.17;1.63;;;;;;;;;;4963915;28;20031;-59
2022/05/09 05:35:05;;;;;;;1.75;1.65;;;;;;;;;;4959245;28;20491;-58
2022/05/09 05:37:32;;;;;;;1.65;1.52;;;;;;;;;;4955598;28;20114;-59
2022/05/09 05:39:58;;;;;;;1.42;1.33;;;;;;;;;;4955079;28;20032;-59
2022/05/09 05:42:24;;;;;;;1.70;1.60;;;;;;;;;;4954691;28;20038;-59
2022/05/09 05:44:50;;;;;;;1.63;1.52;;;;;;;;;;4959656;28;20507;-59
2022/05/09 05:47:18;;;;;;;1.63;1.52;;;;;;;;;;4957038;28;20035;-60
2022/05/09 05:49:44;;;;;;;4.05;1.70;;;;;;;;;;4960782;28;20495;-59
2022/05/09 05:52:11;;;;;;;2.33;2.13;;;;;;;;;;4957474;28;20032;-59
2022/05/09 05:54:40;;;;;;;3.78;1.60;;;;;;;;;;4961790;28;20041;-59
2022/05/09 05:57:08;;;;;;;1.65;1.55;;;;;;;;;;4966918;28;20023;-58
2022/05/09 05:59:33;;;;;;;3.67;1.70;;;;;;;;;;4969291;28;20018;-51
2022/05/09 06:01:59;;;;;;;1.83;1.48;;;;;;;;;;4958657;28;20473;-59
2022/05/09 06:04:25;;;;;;;6.28;1.92;;;;;;;;;;4960515;28;20045;-58
2022/05/09 06:06:51;;;;;;;2.97;1.58;;;;;;;;;;4963912;28;20030;-59
2022/05/09 06:09:17;;;;;;;11.43;2.17;;;;;;;;;;4956480;28;20398;-59
2022/05/09 06:11:43;;;;;;;1.67;1.58;;;;;;;;;;4963021;28;20096;-59
2022/05/09 06:14:12;;;;;;;1.60;1.50;;;;;;;;;;4967230;28;20053;-59
2022/05/09 06:16:40;;;;;;;2.20;1.55;;;;;;;;;;4968653;28;20046;-59
2022/05/09 06:19:08;;;;;;;1.70;1.60;;;;;;;;;;4963346;28;20061;-59
2022/05/09 06:21:37;;;;;;;2.78;1.80;;;;;;;;;;4961353;28;20370;-59
2022/05/09 06:24:04;;;;;;;3.63;1.65;;;;;;;;;;4965836;28;20154;-59
2022/05/09 06:26:31;;;;;;;3.15;1.60;;;;;;;;;;4975306;28;20094;-60
2022/05/09 06:28:57;;;;;;;1.50;1.40;;;;;;;;;;4964121;28;20692;-59
2022/05/09 06:31:23;;;;;;;1.65;1.55;;;;;;;;;;4967867;28;20034;-59
2022/05/09 06:33:49;;;;;;;1.60;1.38;;;;;;;;;;4968291;28;20505;-60
2022/05/09 06:36:14;;;;;;;4.43;1.60;;;;;;;;;;4964213;28;20046;-60
2022/05/09 06:38:40;;;;;;;2.22;1.60;;;;;;;;;;4963898;28;20023;-60
2022/05/09 06:41:10;;;;;;;2.47;1.55;;;;;;;;;;4963104;28;20546;-60
2022/05/09 06:43:36;;;;;;;2.92;1.38;;;;;;;;;;4962248;28;20484;-60
2022/05/09 06:46:02;;;;;;;1.90;1.35;;;;;;;;;;4960747;28;20086;-58
2022/05/09 06:48:28;;;;;;;2.10;1.40;;;;;;;;;;4960484;28;20546;-60
2022/05/09 06:50:54;;;;;;;1.77;1.40;;;;;;;;;;4966243;28;20111;-61
2022/05/09 06:53:19;;;;;;;1.15;1.15;;;;;;;;;;4961087;28;20035;-60
2022/05/09 06:55:49;;;;;;;3.30;1.52;;;;;;;;;;4959995;28;20035;-60
2022/05/09 06:58:18;;;;;;;2.17;1.55;;;;;;;;;;4964467;28;20033;-59
2022/05/09 07:00:44;;;;;;;3.65;1.60;;;;;;;;;;4957539;28;20088;-60
2022/05/09 07:03:12;;;;;;;1.83;1.60;;;;;;;;;;4963652;28;20042;-60
2022/05/09 07:05:42;;;;;;;1.70;1.60;;;;;;;;;;4966691;28;20046;-61
2022/05/09 07:08:09;;;;;;;2.25;1.42;;;;;;;;;;4967567;28;20043;-60
2022/05/09 07:10:36;;;;;;;3.13;1.70;;;;;;;;;;4968391;28;20034;-61
2022/05/09 07:13:04;;;;;;;1.60;1.50;;;;;;;;;;4964040;28;20404;-60
2022/05/09 07:15:32;;;;;;;1.77;1.67;;;;;;;;;;4961112;28;20126;-60
2022/05/09 07:17:59;;;;;;;1.40;1.30;;;;;;;;;;4962373;28;20086;-60
2022/05/09 07:20:26;;;;;;;2.72;1.63;;;;;;;;;;4968244;28;20035;-59
2022/05/09 07:22:55;;;;;;;1.98;1.50;;;;;;;;;;4966577;28;20050;-60
2022/05/09 07:25:22;;;;;;;4.35;1.75;;;;;;;;;;4970656;28;20050;-60
2022/05/09 07:27:48;;;;;;;2.20;1.48;;;;;;;;;;4958124;28;20031;-60
2022/05/09 07:30:18;;;;;;;1.40;1.30;;;;;;;;;;4959699;28;20054;-60
2022/05/09 07:32:45;;;;;;;2.30;1.27;;;;;;;;;;4969713;28;20035;-60
2022/05/09 07:35:13;;;;;;;1.52;1.42;;;;;;;;;;4968211;28;20084;-61
2022/05/09 07:37:40;;;;;;;4.97;1.65;;;;;;;;;;4961228;28;20027;-60
2022/05/09 07:40:07;;;;;;;2.78;1.58;;;;;;;;;;4958912;28;20043;-60
2022/05/09 07:42:34;;;;;;;1.80;1.67;;;;;;;;;;4958682;28;20026;-60
2022/05/09 07:45:04;;;;;;;1.45;1.23;;;;;;;;;;4965777;28;20499;-60
2022/05/09 07:47:30;;;;;;;1.45;1.35;;;;;;;;;;4962474;28;20035;-60
2022/05/09 07:49:56;;;;;;;13.07;1.95;;;;;;;;;;4968324;28;20376;-60
2022/05/09 07:52:22;;;;;;;6.57;1.35;;;;;;;;;;4966019;28;20026;-60
2022/05/09 07:54:48;;;;;;;5.25;1.60;;;;;;;;;;4957786;28;20034;-60
2022/05/09 07:57:15;;;;;;;2.15;1.50;;;;;;;;;;4955346;28;20070;-61
2022/05/09 07:59:40;;;;;;;3.03;1.27;;;;;;;;;;4975297;28;20112;-60
2022/05/09 08:02:06;;;;;;;1.40;1.27;;;;;;;;;;4962026;28;20542;-61
2022/05/09 08:04:32;;;;;;;3.22;1.90;;;;;;;;;;4961188;28;20031;-60
2022/05/09 08:06:58;;;;;;;5.32;1.45;;;;;;;;;;4959674;28;20057;-61
2022/05/09 08:09:24;;;;;;;2.55;1.63;;;;;;;;;;4955139;28;20499;-60
2022/05/09 08:11:50;;;;;;;2.92;1.60;;;;;;;;;;4962440;28;20190;-60
2022/05/09 08:14:16;;;;;;;2.38;1.55;;;;;;;;;;4960902;28;20031;-60
2022/05/09 08:16:43;;;;;;;1.95;1.75;;;;;;;;;;4960625;28;20053;-61
2022/05/09 08:19:11;;;;;;;3.53;2.00;;;;;;;;;;4962089;28;20096;-60
2022/05/09 08:21:38;;;;;;;2.38;1.80;;;;;;;;;;4956331;28;20480;-60
2022/05/09 08:24:05;;;;;;;4.35;1.73;;;;;;;;;;4960250;28;20058;-60
2022/05/09 08:26:31;;;;;;;2.92;1.40;;;;;;;;;;4960067;28;20038;-61
2022/05/09 08:28:57;;;;;;;2.97;2.00;;;;;;;;;;4961815;28;20031;-60
2022/05/09 08:31:23;;;;;;;2.60;1.60;;;;;;;;;;4959612;28;20035;-60
2022/05/09 08:33:51;;;;;;;4.03;1.92;;;;;;;;;;4965993;28;20034;-60
2022/05/09 08:39:04;;;;;;;4.30;1.92;;;;;;;;;;4957867;28;20119;-60
2022/05/09 08:41:56;;;;;;;6.72;2.20;;;;;;;;;;4963869;28;20035;-61
2022/05/09 08:44:37;;;;;;;2.72;2.10;;;;;;;;;;4973714;28;20053;-60
2022/05/09 08:47:38;;;;;;;2.65;1.52;;;;;;;;;;4963919;28;20433;-60
2022/05/09 08:50:13;;;;;;;1.70;1.60;;;;;;;;;;4961806;28;20137;-60
2022/05/09 08:52:45;;;;;;;2.08;1.98;;;;;;;;;;4964102;28;20058;-60
2022/05/09 08:55:12;;;;;;;4.95;1.88;;;;;;;;;;4957898;28;20415;-60
2022/05/09 08:57:54;;;;;;;4.07;1.88;;;;;;;;;;4962681;28;20126;-60
2022/05/09 09:00:21;;;;;;;4.97;2.22;;;;;;;;;;4960766;28;20088;-60
2022/05/09 09:03:19;;;;;;;2.53;1.92;;;;;;;;;;4962283;28;20555;-61
2022/05/09 09:05:47;;;;;;;5.80;1.73;;;;;;;;;;4960289;28;20097;-60
2022/05/09 09:08:51;;;;;;;4.43;1.85;;;;;;;;;;4967700;28;20035;-61
2022/05/09 09:11:32;;;;;;;2.83;2.15;;;;;;;;;;4943757;28;20109;-61
2022/05/09 09:14:21;;;;;;;2.70;2.50;;;;;;;;;;4963247;28;20760;-60
2022/05/09 09:17:03;;;;;;;6.63;2.10;;;;;;;;;;4943788;28;20685;-61
2022/05/09 09:19:41;;;;;;;8.15;2.30;;;;;;;;;;4945401;28;20099;-61
2022/05/09 09:22:15;;;;;;;4.10;2.05;;;;;;;;;;4946840;28;20087;-61
2022/05/09 09:25:15;;;;;;;5.90;2.40;;;;;;;;;;4943260;28;20411;-61
2022/05/09 09:27:48;;;;;;;4.45;2.00;;;;;;;;;;4939080;28;20151;-61
2022/05/09 09:30:21;;;;;;;4.28;2.20;;;;;;;;;;4939864;28;20497;-61
2022/05/09 09:32:55;;;;;;;6.50;2.40;;;;;;;;;;4935302;28;20032;-61
2022/05/09 09:35:33;;;;;;;5.95;2.03;;;;;;;;;;4947388;28;20047;-61
2022/05/09 09:38:07;;;;;;;4.68;2.00;;;;;;;;;;4941500;28;20035;-60
2022/05/09 09:40:33;;;;;;;6.13;2.63;;;;;;;;;;4942720;28;20047;-61
2022/05/09 09:42:59;;;;;;;9.30;2.60;;;;;;;;;;4945376;28;20039;-61
2022/05/09 09:45:34;;;;;;;7.93;2.40;;;;;;;;;;4942268;28;20077;-61
2022/05/09 09:48:18;;;;;;;2.50;2.20;;;;;;;;;;4937976;28;20416;-61
2022/05/09 09:50:54;;;;;;;2.90;1.60;;;;;;;;;;4941774;28;20500;-61
2022/05/09 09:53:38;;;;;;;3.28;2.10;;;;;;;;;;4948872;28;20047;-61
2022/05/09 09:56:06;;;;;;;7.50;2.05;;;;;;;;;;4962433;28;20051;-61
2022/05/09 09:58:32;;;;;;;3.80;1.85;;;;;;;;;;4965141;28;20022;-61
2022/05/09 10:01:31;;;;;;;2.20;1.45;;;;;;;;;;4960475;28;20479;-61
2022/05/09 10:04:26;;;;;;;2.55;1.75;;;;;;;;;;4952472;28;20046;-61
2022/05/09 10:07:08;;;;;;;4.47;2.30;;;;;;;;;;4960988;28;20042;-62
2022/05/09 10:09:59;;;;;;;2.88;1.83;;;;;;;;;;4957521;28;20101;-61
2022/05/09 10:12:32;;;;;;;2.58;1.90;;;;;;;;;;4954623;28;20089;-61
2022/05/09 10:15:00;;;;;;;5.70;2.08;;;;;;;;;;4959920;28;20467;-61
2022/05/09 10:17:25;;;;;;;3.08;1.70;;;;;;;;;;4970232;28;20060;-61
2022/05/09 10:19:54;;;;;;;4.47;1.60;;;;;;;;;;4960482;28;20035;-61
2022/05/09 10:25:24;;;;;;;3.78;1.92;;;;;;;;;;4961064;28;20043;-62
2022/05/09 10:28:10;;;;;;;5.60;2.25;;;;;;;;;;4953220;28;20039;-62
2022/05/09 10:30:40;;;;;;;9.00;1.70;;;;;;;;;;4956048;28;20400;-62
2022/05/09 10:33:13;;;;;;;2.95;1.77;;;;;;;;;;4964638;28;20039;-62
2022/05/09 10:35:47;;;;;;;7.88;2.20;;;;;;;;;;4966456;28;20136;-62
2022/05/09 10:38:19;;;;;;;4.18;1.85;;;;;;;;;;4965098;28;20033;-63
2022/05/09 10:40:50;;;;;;;4.90;1.83;;;;;;;;;;4965161;28;20026;-62
2022/05/09 10:43:23;;;;;;;6.18;2.58;;;;;;;;;;4965849;28;20030;-63
2022/05/09 10:45:50;;;;;;;11.35;2.17;;;;;;;;;;4953958;28;20491;-63
2022/05/09 10:48:19;;;;;;;8.95;1.90;;;;;;;;;;4959949;28;20472;-62
2022/05/09 10:51:25;;;;;;;4.85;1.88;;;;;;;;;;4958712;28;20046;-62
2022/05/09 10:54:14;;;;;;;8.02;1.65;;;;;;;;;;4935175;29;20114;-63
2022/05/09 10:56:49;;;;;;;6.93;2.03;;;;;;;;;;4939686;29;20143;-63
2022/05/09 10:59:30;;;;;;;6.47;1.75;;;;;;;;;;4937511;28;20043;-62
2022/05/09 11:02:19;;;;;;;5.03;1.58;;;;;;;;;;4937383;28;20399;-63
2022/05/09 11:04:45;;;;;;;4.80;1.98;;;;;;;;;;4938748;29;20083;-63
2022/05/09 11:07:45;;;;;;;4.15;1.70;;;;;;;;;;4940591;29;20062;-63
2022/05/09 11:10:23;;;;;;;3.53;1.67;;;;;;;;;;4936716;29;20118;-63
2022/05/09 11:13:07;;;;;;;4.55;1.45;;;;;;;;;;4937395;29;20100;-63
2022/05/09 11:15:55;;;;;;;3.20;1.52;;;;;;;;;;4936748;29;20056;-63
2022/05/09 11:18:51;;;;;;;5.53;1.85;;;;;;;;;;4935315;28;20791;-62
2022/05/09 11:21:34;;;;;;;2.05;1.40;;;;;;;;;;4935269;29;20055;-62
2022/05/09 11:24:25;;;;;;;3.08;1.35;;;;;;;;;;4940946;29;20134;-62
2022/05/09 11:27:09;;;;;;;4.57;2.03;;;;;;;;;;4932754;28;20040;-62
2022/05/09 11:29:53;;;;;;;4.40;2.10;;;;;;;;;;4949785;28;20332;-62
2022/05/09 11:32:35;;;;;;;7.70;1.90;;;;;;;;;;4961111;28;20440;-62
2022/05/09 11:35:12;;;;;;;7.95;1.70;;;;;;;;;;4969526;28;20538;-62
2022/05/09 11:38:12;;;;;;;7.45;1.58;;;;;;;;;;4965673;28;20042;-61
2022/05/09 11:41:01;;;;;;;9.40;2.03;;;;;;;;;;4965619;28;20165;-62
2022/05/09 11:43:45;;;;;;;6.28;1.98;;;;;;;;;;4963629;28;20039;-61
2022/05/09 11:46:14;;;;;;;17.27;2.08;;;;;;;;;;4965555;28;20034;-62
2022/05/09 11:49:17;;;;;;;3.83;1.88;;;;;;;;;;4957813;28;20031;-62
2022/05/09 11:51:51;;;;;;;5.00;2.10;;;;;;;;;;4961615;28;20041;-62
2022/05/09 11:54:25;;;;;;;12.15;2.25;;;;;;;;;;4956048;28;20027;-62
2022/05/09 11:56:54;;;;;;;9.02;2.22;;;;;;;;;;4960195;28;20428;-62
2022/05/09 11:59:32;;;;;;;19.45;3.15;;;;;;;;;;4969785;28;20035;-62
2022/05/09 12:02:04;;;;;;;13.82;2.97;;;;;;;;;;4954709;28;20432;-61
2022/05/09 12:04:33;;;;;;;6.85;2.20;;;;;;;;;;4961003;28;20402;-62
2022/05/09 12:07:00;;;;;;;9.15;2.80;;;;;;;;;;4957077;28;20120;-61
2022/05/09 12:09:54;;;;;;;15.13;2.35;;;;;;;;;;4962259;28;20037;-62
2022/05/09 12:12:49;;;;;;;12.70;2.45;;;;;;;;;;4955930;28;20483;-62
2022/05/09 12:15:15;;;;;;;19.52;2.65;;;;;;;;;;4956233;28;20055;-61
2022/05/09 12:18:07;;;;;;;8.70;2.10;;;;;;;;;;4962098;28;20031;-62
2022/05/09 12:20:38;;;;;;;14.80;2.38;;;;;;;;;;4974355;28;20380;-62
2022/05/09 12:23:06;;;;;;;14.68;2.20;;;;;;;;;;4964203;28;20046;-62
2022/05/09 12:25:53;;;;;;;14.20;2.10;;;;;;;;;;4966916;28;20034;-62
2022/05/09 12:28:26;;;;;;;11.38;2.40;;;;;;;;;;4956671;28;20023;-62
2022/05/09 12:31:01;;;;;;;11.07;2.17;;;;;;;;;;4956112;28;20039;-61
2022/05/09 12:33:44;;;;;;;6.55;1.70;;;;;;;;;;4956084;28;20503;-62
2022/05/09 12:36:15;;;;;;;5.57;1.80;;;;;;;;;;4955732;28;20047;-62
2022/05/09 12:38:44;;;;;;;4.80;2.15;;;;;;;;;;4955700;28;20035;-62
2022/05/09 12:41:20;;;;;;;5.55;1.85;;;;;;;;;;4961076;28;20490;-62
2022/05/09 12:44:08;;;;;;;4.90;2.10;;;;;;;;;;4961152;28;20126;-61
2022/05/09 12:46:45;;;;;;;4.15;1.50;;;;;;;;;;4970653;28;20491;-62
2022/05/09 12:49:13;;;;;;;9.43;2.25;;;;;;;;;;4959443;28;20063;-62
2022/05/09 12:51:45;;;;;;;6.07;1.95;;;;;;;;;;4962144;28;20027;-62
2022/05/09 12:54:14;;;;;;;5.60;1.70;;;;;;;;;;4959042;28;20058;-62
2022/05/09 12:56:52;;;;;;;3.97;1.88;;;;;;;;;;4965805;28;20592;-62
2022/05/09 12:59:19;;;;;;;5.80;1.85;;;;;;;;;;4969282;28;20142;-62
2022/05/09 13:01:55;;;;;;;14.15;1.95;;;;;;;;;;4957651;28;20448;-62
2022/05/09 13:04:28;;;;;;;18.15;2.10;;;;;;;;;;4959346;28;20049;-63
2022/05/09 13:06:57;;;;;;;12.80;2.33;;;;;;;;;;4956515;28;20113;-62
2022/05/09 13:09:26;;;;;;;12.35;1.92;;;;;;;;;;4955090;28;20037;-63
2022/05/09 13:12:01;;;;;;;13.38;2.33;;;;;;;;;;4968475;28;20129;-61
2022/05/09 13:14:36;;;;;;;13.10;1.80;;;;;;;;;;4961139;28;20444;-62
2022/05/09 13:17:04;;;;;;;10.38;1.98;;;;;;;;;;4962393;28;20059;-62
2022/05/09 13:19:32;;;;;;;6.13;2.25;;;;;;;;;;4959481;28;20495;-61
2022/05/09 13:21:58;;;;;;;9.35;1.50;;;;;;;;;;4961278;28;20057;-62
2022/05/09 13:24:29;;;;;;;22.58;2.08;;;;;;;;;;4958804;28;20487;-62
2022/05/09 13:26:57;;;;;;;5.57;1.92;;;;;;;;;;4962302;28;20050;-62
2022/05/09 13:29:32;;;;;;;12.93;2.13;;;;;;;;;;4961557;28;20518;-61
2022/05/09 13:31:59;;;;;;;12.48;2.28;;;;;;;;;;4961976;28;20035;-62
2022/05/09 13:34:33;;;;;;;16.25;2.03;;;;;;;;;;4955888;28;20044;-61
2022/05/09 13:37:01;;;;;;;6.90;1.90;;;;;;;;;;4960252;28;20031;-62
2022/05/09 13:39:37;;;;;;;4.85;1.65;;;;;;;;;;4956816;28;20113;-62
2022/05/09 13:42:08;;;;;;;11.90;2.10;;;;;;;;;;4966426;28;20102;-62
2022/05/09 13:44:34;;;;;;;10.77;2.50;;;;;;;;;;4959841;28;20027;-62
2022/05/09 13:47:00;;;;;;;6.45;1.95;;;;;;;;;;4966288;28;20367;-62
2022/05/09 13:49:29;;;;;;;9.98;2.15;;;;;;;;;;4959078;28;20042;-61
2022/05/09 13:52:17;;;;;;;11.02;2.20;;;;;;;;;;4961870;28;20034;-62
2022/05/09 13:54:49;;;;;;;4.68;2.05;;;;;;;;;;4954387;28;20058;-62
2022/05/09 13:57:16;;;;;;;10.00;2.20;;;;;;;;;;4958876;28;20104;-62
2022/05/09 13:59:44;;;;;;;8.10;2.20;;;;;;;;;;4956338;28;20039;-62
2022/05/09 14:02:12;;;;;;;3.03;1.92;;;;;;;;;;4962055;28;20113;-62
2022/05/09 14:04:41;;;;;;;4.78;1.75;;;;;;;;;;4958864;28;20033;-62
2022/05/09 14:09:51;;;;;;;14.10;2.33;;;;;;;;;;4956805;28;20625;-62
2022/05/09 14:12:20;;;;;;;12.48;2.35;;;;;;;;;;4957964;28;20035;-62
2022/05/09 14:15:00;;;;;;;9.98;1.75;;;;;;;;;;4956623;28;20463;-62
2022/05/09 14:17:34;;;;;;;22.88;2.83;;;;;;;;;;4961881;28;20039;-62
2022/05/09 14:20:05;;;;;;;8.65;2.17;;;;;;;;;;4961896;28;20127;-62
2022/05/09 14:22:31;;;;;;;7.80;2.10;;;;;;;;;;4963508;28;20027;-61
2022/05/09 14:30:41;;;;;;;10.63;2.00;;;;;;;;;;4960667;28;20610;-61
2022/05/09 14:33:38;;;;;;;7.63;2.08;;;;;;;;;;4956632;28;20388;-62
2022/05/09 14:36:07;;;;;;;4.85;2.17;;;;;;;;;;4960286;28;20039;-62
2022/05/09 14:38:39;;;;;;;6.40;2.00;;;;;;;;;;4963941;28;20026;-62
2022/05/09 14:41:36;;;;;;;;;;;;;;;;;;4967172;28;20022;-59
2022/05/09 14:44:25;;;;;;;4.43;1.75;;;;;;;;;;4967040;28;20420;-62
2022/05/09 14:46:57;;;;;;;9.07;2.30;;;;;;;;;;4966361;28;20073;-62
2022/05/09 14:49:24;;;;;;;;;;;;;;;;;;4968029;28;20038;-62
2022/05/09 14:52:18;;;;;;;5.78;2.20;;;;;;;;;;4966497;28;19956;-62
2022/05/09 14:54:50;;;;;;;14.18;2.35;;;;;;;;;;4962915;28;20665;-63
2022/05/09 14:57:27;;;;;;;9.60;2.13;;;;;;;;;;4963672;28;20487;-62
2022/05/09 15:00:05;;;;;;;10.32;2.30;;;;;;;;;;4962474;28;20042;-62
2022/05/09 15:02:33;;;;;;;12.50;2.38;;;;;;;;;;4964761;28;20066;-62
2022/05/09 15:05:05;;;;;;;7.85;2.20;;;;;;;;;;4972548;28;20518;-62
2022/05/09 15:07:32;;;;;;;11.40;2.38;;;;;;;;;;4965474;28;20039;-62
2022/05/09 15:09:57;;;;;;;8.63;2.38;;;;;;;;;;4963784;28;20031;-62
2022/05/09 15:12:27;;;;;;;5.05;1.92;;;;;;;;;;4960022;28;20110;-62
2022/05/09 15:14:54;;;;;;;4.78;1.98;;;;;;;;;;4963921;28;20391;-62
2022/05/09 15:17:20;;;;;;;7.15;2.05;;;;;;;;;;4968492;28;20047;-62
2022/05/09 15:19:46;;;;;;;6.13;2.15;;;;;;;;;;4975174;28;20491;-62
2022/05/09 15:22:16;;;;;;;10.85;2.47;;;;;;;;;;4962278;28;20039;-62
2022/05/09 15:24:43;;;;;;;7.50;2.30;;;;;;;;;;4959780;28;20038;-62
2022/05/09 15:27:12;;;;;;;13.38;2.55;;;;;;;;;;4960435;28;20089;-62